sensor_id;sensor_type;location;lat;lon;timestamp;P1;durP1;ratioP1;P2;durP2;ratioP2
43990;SDS011;29654;50.784;20.604;2022-07-15T00:03:04;3.70;;;3.05;;
43990;SDS011;29654;50.784;20.604;2022-07-15T00:08:07;4.18;;;3.78;;
43990;SDS011;29654;50.784;20.604;2022-07-15T00:13:11;3.40;;;3.17;;
43990;SDS011;29654;50.784;20.604;2022-07-15T00:18:14;3.58;;;3.33;;
43990;SDS011;29654;50.784;20.604;2022-07-15T00:23:17;3.70;;;3.40;;
43990;SDS011;29654;50.784;20.604;2022-07-15T00:28:22;3.50;;;3.20;;
43990;SDS011;29654;50.784;20.604;2022-07-15T00:33:25;3.22;;;3.03;;
43990;SDS011;29654;50.784;20.604;2022-07-15T00:38:28;3.67;;;3.38;;
43990;SDS011;29654;50.784;20.604;2022-07-15T00:43:32;3.28;;;3.08;;
43990;SDS011;29654;50.784;20.604;2022-07-15T00:48:35;3.58;;;3.30;;
43990;SDS011;29654;50.784;20.604;2022-07-15T00:53:38;4.25;;;3.63;;
43990;SDS011;29654;50.784;20.604;2022-07-15T00:58:44;4.00;;;3.60;;
43990;SDS011;29654;50.784;20.604;2022-07-15T01:03:49;3.53;;;3.25;;
43990;SDS011;29654;50.784;20.604;2022-07-15T01:08:53;3.70;;;3.33;;
43990;SDS011;29654;50.784;20.604;2022-07-15T01:13:58;3.38;;;3.08;;
43990;SDS011;29654;50.784;20.604;2022-07-15T01:19:02;4.22;;;3.92;;
43990;SDS011;29654;50.784;20.604;2022-07-15T01:24:16;4.40;;;4.00;;
43990;SDS011;29654;50.784;20.604;2022-07-15T01:29:21;4.35;;;3.95;;
43990;SDS011;29654;50.784;20.604;2022-07-15T01:34:25;4.80;;;4.40;;
43990;SDS011;29654;50.784;20.604;2022-07-15T01:39:30;5.18;;;4.72;;
43990;SDS011;29654;50.784;20.604;2022-07-15T01:44:34;5.90;;;5.30;;
43990;SDS011;29654;50.784;20.604;2022-07-15T01:49:38;5.78;;;5.28;;
43990;SDS011;29654;50.784;20.604;2022-07-15T01:54:48;6.60;;;6.10;;
43990;SDS011;29654;50.784;20.604;2022-07-15T01:59:51;5.57;;;5.18;;
43990;SDS011;29654;50.784;20.604;2022-07-15T02:05:03;6.25;;;5.75;;
43990;SDS011;29654;50.784;20.604;2022-07-15T02:10:09;6.82;;;6.22;;
43990;SDS011;29654;50.784;20.604;2022-07-15T02:15:17;6.80;;;6.30;;
43990;SDS011;29654;50.784;20.604;2022-07-15T02:20:23;6.68;;;6.18;;
43990;SDS011;29654;50.784;20.604;2022-07-15T02:25:31;7.13;;;6.53;;
43990;SDS011;29654;50.784;20.604;2022-07-15T02:30:38;6.32;;;5.72;;
43990;SDS011;29654;50.784;20.604;2022-07-15T02:35:44;6.90;;;6.38;;
43990;SDS011;29654;50.784;20.604;2022-07-15T02:40:49;7.13;;;6.57;;
43990;SDS011;29654;50.784;20.604;2022-07-15T02:45:52;8.05;;;7.22;;
43990;SDS011;29654;50.784;20.604;2022-07-15T02:50:56;9.13;;;8.30;;
43990;SDS011;29654;50.784;20.604;2022-07-15T02:56:02;9.40;;;8.73;;
43990;SDS011;29654;50.784;20.604;2022-07-15T03:01:06;8.85;;;8.15;;
43990;SDS011;29654;50.784;20.604;2022-07-15T03:06:12;8.63;;;7.82;;
43990;SDS011;29654;50.784;20.604;2022-07-15T03:11:16;8.25;;;7.50;;
43990;SDS011;29654;50.784;20.604;2022-07-15T03:16:22;7.70;;;7.10;;
43990;SDS011;29654;50.784;20.604;2022-07-15T03:21:27;8.32;;;7.55;;
43990;SDS011;29654;50.784;20.604;2022-07-15T03:26:32;7.32;;;6.60;;
43990;SDS011;29654;50.784;20.604;2022-07-15T03:31:36;7.57;;;6.97;;
43990;SDS011;29654;50.784;20.604;2022-07-15T03:36:39;6.53;;;5.80;;
43990;SDS011;29654;50.784;20.604;2022-07-15T03:41:45;6.30;;;5.80;;
43990;SDS011;29654;50.784;20.604;2022-07-15T03:46:48;5.70;;;5.20;;
43990;SDS011;29654;50.784;20.604;2022-07-15T03:51:51;5.10;;;4.65;;
43990;SDS011;29654;50.784;20.604;2022-07-15T03:56:55;5.13;;;4.20;;
43990;SDS011;29654;50.784;20.604;2022-07-15T04:01:59;6.85;;;3.85;;
43990;SDS011;29654;50.784;20.604;2022-07-15T04:07:03;5.90;;;3.83;;
43990;SDS011;29654;50.784;20.604;2022-07-15T04:12:07;5.25;;;4.20;;
43990;SDS011;29654;50.784;20.604;2022-07-15T04:17:13;5.88;;;4.13;;
43990;SDS011;29654;50.784;20.604;2022-07-15T04:22:16;4.45;;;4.05;;
43990;SDS011;29654;50.784;20.604;2022-07-15T04:27:25;4.35;;;3.30;;
43990;SDS011;29654;50.784;20.604;2022-07-15T04:32:28;6.03;;;3.80;;
43990;SDS011;29654;50.784;20.604;2022-07-15T04:37:31;3.53;;;3.00;;
43990;SDS011;29654;50.784;20.604;2022-07-15T04:42:35;4.85;;;2.95;;
43990;SDS011;29654;50.784;20.604;2022-07-15T04:47:42;4.20;;;2.90;;
43990;SDS011;29654;50.784;20.604;2022-07-15T04:52:51;3.50;;;2.50;;
43990;SDS011;29654;50.784;20.604;2022-07-15T04:57:55;4.63;;;2.60;;
43990;SDS011;29654;50.784;20.604;2022-07-15T05:03:00;3.22;;;2.38;;
43990;SDS011;29654;50.784;20.604;2022-07-15T05:08:05;4.03;;;2.15;;
43990;SDS011;29654;50.784;20.604;2022-07-15T05:13:12;3.35;;;1.95;;
43990;SDS011;29654;50.784;20.604;2022-07-15T05:18:15;2.95;;;2.30;;
43990;SDS011;29654;50.784;20.604;2022-07-15T05:23:18;3.03;;;1.92;;
43990;SDS011;29654;50.784;20.604;2022-07-15T05:28:27;4.18;;;2.47;;
43990;SDS011;29654;50.784;20.604;2022-07-15T05:33:30;2.90;;;2.05;;
43990;SDS011;29654;50.784;20.604;2022-07-15T05:38:35;3.50;;;2.15;;
43990;SDS011;29654;50.784;20.604;2022-07-15T05:43:40;6.10;;;2.22;;
43990;SDS011;29654;50.784;20.604;2022-07-15T05:48:44;2.33;;;1.85;;
43990;SDS011;29654;50.784;20.604;2022-07-15T05:53:48;3.40;;;2.00;;
43990;SDS011;29654;50.784;20.604;2022-07-15T05:58:56;5.20;;;2.28;;
43990;SDS011;29654;50.784;20.604;2022-07-15T06:04:05;3.50;;;1.92;;
43990;SDS011;29654;50.784;20.604;2022-07-15T06:09:10;3.40;;;1.90;;
43990;SDS011;29654;50.784;20.604;2022-07-15T06:14:14;3.80;;;1.80;;
43990;SDS011;29654;50.784;20.604;2022-07-15T06:19:17;4.35;;;2.00;;
43990;SDS011;29654;50.784;20.604;2022-07-15T06:24:21;4.65;;;1.63;;
43990;SDS011;29654;50.784;20.604;2022-07-15T06:29:27;4.20;;;1.85;;
43990;SDS011;29654;50.784;20.604;2022-07-15T06:34:33;5.45;;;1.70;;
43990;SDS011;29654;50.784;20.604;2022-07-15T06:39:38;3.67;;;1.73;;
43990;SDS011;29654;50.784;20.604;2022-07-15T06:44:44;1.77;;;1.10;;
43990;SDS011;29654;50.784;20.604;2022-07-15T06:49:47;5.47;;;1.63;;
43990;SDS011;29654;50.784;20.604;2022-07-15T06:54:51;2.33;;;1.27;;
43990;SDS011;29654;50.784;20.604;2022-07-15T06:59:56;2.17;;;1.20;;
43990;SDS011;29654;50.784;20.604;2022-07-15T07:04:59;2.00;;;1.00;;
43990;SDS011;29654;50.784;20.604;2022-07-15T07:10:03;1.48;;;0.85;;
43990;SDS011;29654;50.784;20.604;2022-07-15T07:15:10;1.13;;;0.80;;
43990;SDS011;29654;50.784;20.604;2022-07-15T07:20:13;1.83;;;0.73;;
43990;SDS011;29654;50.784;20.604;2022-07-15T07:25:16;1.75;;;0.60;;
43990;SDS011;29654;50.784;20.604;2022-07-15T07:30:20;1.95;;;0.60;;
43990;SDS011;29654;50.784;20.604;2022-07-15T07:35:23;1.25;;;0.73;;
43990;SDS011;29654;50.784;20.604;2022-07-15T07:40:27;0.90;;;0.80;;
43990;SDS011;29654;50.784;20.604;2022-07-15T07:45:31;1.23;;;0.70;;
43990;SDS011;29654;50.784;20.604;2022-07-15T07:50:35;1.60;;;0.88;;
43990;SDS011;29654;50.784;20.604;2022-07-15T07:55:39;2.38;;;0.80;;
43990;SDS011;29654;50.784;20.604;2022-07-15T08:00:43;1.77;;;0.98;;
43990;SDS011;29654;50.784;20.604;2022-07-15T08:05:47;1.42;;;1.10;;
43990;SDS011;29654;50.784;20.604;2022-07-15T08:10:50;3.17;;;1.10;;
43990;SDS011;29654;50.784;20.604;2022-07-15T08:15:56;1.60;;;1.10;;
43990;SDS011;29654;50.784;20.604;2022-07-15T08:21:00;1.85;;;1.00;;
43990;SDS011;29654;50.784;20.604;2022-07-15T08:26:05;2.08;;;0.80;;
43990;SDS011;29654;50.784;20.604;2022-07-15T08:31:13;1.70;;;0.95;;
43990;SDS011;29654;50.784;20.604;2022-07-15T08:36:20;2.67;;;1.35;;
43990;SDS011;29654;50.784;20.604;2022-07-15T08:41:23;3.70;;;1.17;;
43990;SDS011;29654;50.784;20.604;2022-07-15T08:46:28;2.53;;;1.00;;
43990;SDS011;29654;50.784;20.604;2022-07-15T08:51:35;1.30;;;1.20;;
43990;SDS011;29654;50.784;20.604;2022-07-15T08:56:42;3.60;;;1.10;;
43990;SDS011;29654;50.784;20.604;2022-07-15T09:01:49;2.22;;;1.00;;
43990;SDS011;29654;50.784;20.604;2022-07-15T09:06:55;2.60;;;1.50;;
43990;SDS011;29654;50.784;20.604;2022-07-15T09:12:06;5.93;;;2.10;;
43990;SDS011;29654;50.784;20.604;2022-07-15T09:17:22;3.63;;;1.10;;
43990;SDS011;29654;50.784;20.604;2022-07-15T09:22:27;1.98;;;1.25;;
43990;SDS011;29654;50.784;20.604;2022-07-15T09:27:33;2.88;;;0.88;;
43990;SDS011;29654;50.784;20.604;2022-07-15T09:32:40;1.52;;;0.93;;
43990;SDS011;29654;50.784;20.604;2022-07-15T09:38:00;1.50;;;1.13;;
43990;SDS011;29654;50.784;20.604;2022-07-15T09:43:03;1.38;;;0.73;;
43990;SDS011;29654;50.784;20.604;2022-07-15T09:48:12;1.35;;;0.80;;
43990;SDS011;29654;50.784;20.604;2022-07-15T09:53:21;0.95;;;0.73;;
43990;SDS011;29654;50.784;20.604;2022-07-15T09:58:29;1.40;;;0.80;;
43990;SDS011;29654;50.784;20.604;2022-07-15T10:03:37;1.00;;;0.77;;
43990;SDS011;29654;50.784;20.604;2022-07-15T10:08:46;2.35;;;1.00;;
43990;SDS011;29654;50.784;20.604;2022-07-15T10:14:09;1.58;;;0.80;;
43990;SDS011;29654;50.784;20.604;2022-07-15T10:19:37;0.80;;;0.70;;
43990;SDS011;29654;50.784;20.604;2022-07-15T10:25:08;1.40;;;0.77;;
43990;SDS011;29654;50.784;20.604;2022-07-15T10:30:26;0.82;;;0.77;;
43990;SDS011;29654;50.784;20.604;2022-07-15T10:35:38;1.70;;;0.85;;
43990;SDS011;29654;50.784;20.604;2022-07-15T10:41:05;2.05;;;0.90;;
43990;SDS011;29654;50.784;20.604;2022-07-15T10:46:18;1.35;;;0.73;;
43990;SDS011;29654;50.784;20.604;2022-07-15T10:51:45;1.23;;;0.65;;
43990;SDS011;29654;50.784;20.604;2022-07-15T10:56:51;4.28;;;0.85;;
43990;SDS011;29654;50.784;20.604;2022-07-15T11:02:10;3.47;;;0.80;;
43990;SDS011;29654;50.784;20.604;2022-07-15T11:07:22;1.13;;;0.90;;
43990;SDS011;29654;50.784;20.604;2022-07-15T11:18:03;2.58;;;0.70;;
43990;SDS011;29654;50.784;20.604;2022-07-15T11:23:07;2.47;;;0.60;;
43990;SDS011;29654;50.784;20.604;2022-07-15T11:28:11;0.95;;;0.80;;
43990;SDS011;29654;50.784;20.604;2022-07-15T11:33:17;0.73;;;0.70;;
43990;SDS011;29654;50.784;20.604;2022-07-15T11:38:23;1.48;;;0.60;;
43990;SDS011;29654;50.784;20.604;2022-07-15T11:43:28;0.65;;;0.63;;
43990;SDS011;29654;50.784;20.604;2022-07-15T11:48:49;1.45;;;0.55;;
43990;SDS011;29654;50.784;20.604;2022-07-15T11:53:56;3.42;;;0.70;;
43990;SDS011;29654;50.784;20.604;2022-07-15T11:59:00;1.88;;;0.60;;
43990;SDS011;29654;50.784;20.604;2022-07-15T12:04:03;1.80;;;0.70;;
43990;SDS011;29654;50.784;20.604;2022-07-15T12:09:07;2.83;;;0.52;;
43990;SDS011;29654;50.784;20.604;2022-07-15T12:14:11;1.90;;;0.70;;
43990;SDS011;29654;50.784;20.604;2022-07-15T12:19:21;1.05;;;0.60;;
43990;SDS011;29654;50.784;20.604;2022-07-15T12:24:35;1.42;;;0.70;;
43990;SDS011;29654;50.784;20.604;2022-07-15T12:29:42;2.83;;;0.70;;
43990;SDS011;29654;50.784;20.604;2022-07-15T12:34:50;2.00;;;0.50;;
43990;SDS011;29654;50.784;20.604;2022-07-15T12:39:57;1.20;;;0.73;;
43990;SDS011;29654;50.784;20.604;2022-07-15T12:45:06;1.23;;;0.60;;
43990;SDS011;29654;50.784;20.604;2022-07-15T12:50:14;4.35;;;0.70;;
43990;SDS011;29654;50.784;20.604;2022-07-15T12:55:19;1.23;;;0.52;;
43990;SDS011;29654;50.784;20.604;2022-07-15T13:00:24;0.50;;;0.50;;
43990;SDS011;29654;50.784;20.604;2022-07-15T13:05:28;1.20;;;0.73;;
43990;SDS011;29654;50.784;20.604;2022-07-15T13:10:35;1.65;;;0.82;;
43990;SDS011;29654;50.784;20.604;2022-07-15T13:15:38;1.55;;;0.60;;
43990;SDS011;29654;50.784;20.604;2022-07-15T13:20:42;2.17;;;0.52;;
43990;SDS011;29654;50.784;20.604;2022-07-15T13:25:47;0.82;;;0.60;;
43990;SDS011;29654;50.784;20.604;2022-07-15T13:30:51;1.90;;;0.52;;
43990;SDS011;29654;50.784;20.604;2022-07-15T13:35:54;1.10;;;0.60;;
43990;SDS011;29654;50.784;20.604;2022-07-15T13:40:59;1.00;;;0.40;;
43990;SDS011;29654;50.784;20.604;2022-07-15T13:46:02;2.90;;;1.00;;
43990;SDS011;29654;50.784;20.604;2022-07-15T13:51:05;1.58;;;0.60;;
43990;SDS011;29654;50.784;20.604;2022-07-15T13:56:28;2.17;;;0.70;;
43990;SDS011;29654;50.784;20.604;2022-07-15T14:01:31;1.58;;;0.47;;
43990;SDS011;29654;50.784;20.604;2022-07-15T14:06:34;1.73;;;0.82;;
43990;SDS011;29654;50.784;20.604;2022-07-15T14:11:38;1.52;;;0.75;;
43990;SDS011;29654;50.784;20.604;2022-07-15T14:16:41;1.98;;;0.55;;
43990;SDS011;29654;50.784;20.604;2022-07-15T14:21:44;1.48;;;0.70;;
43990;SDS011;29654;50.784;20.604;2022-07-15T14:26:48;1.77;;;0.70;;
43990;SDS011;29654;50.784;20.604;2022-07-15T14:31:52;0.60;;;0.60;;
43990;SDS011;29654;50.784;20.604;2022-07-15T14:36:55;1.20;;;0.70;;
43990;SDS011;29654;50.784;20.604;2022-07-15T14:42:00;1.77;;;0.88;;
43990;SDS011;29654;50.784;20.604;2022-07-15T14:47:03;1.00;;;0.60;;
43990;SDS011;29654;50.784;20.604;2022-07-15T14:52:06;0.60;;;0.60;;
43990;SDS011;29654;50.784;20.604;2022-07-15T14:57:10;1.05;;;0.57;;
43990;SDS011;29654;50.784;20.604;2022-07-15T15:02:14;3.38;;;0.90;;
43990;SDS011;29654;50.784;20.604;2022-07-15T15:07:17;2.42;;;0.90;;
43990;SDS011;29654;50.784;20.604;2022-07-15T15:12:21;2.97;;;0.80;;
43990;SDS011;29654;50.784;20.604;2022-07-15T15:17:26;1.08;;;0.93;;
43990;SDS011;29654;50.784;20.604;2022-07-15T15:22:29;1.83;;;0.73;;
43990;SDS011;29654;50.784;20.604;2022-07-15T15:27:34;1.13;;;0.70;;
43990;SDS011;29654;50.784;20.604;2022-07-15T15:32:37;1.30;;;0.73;;
43990;SDS011;29654;50.784;20.604;2022-07-15T15:37:41;0.98;;;0.63;;
43990;SDS011;29654;50.784;20.604;2022-07-15T15:42:46;1.88;;;0.88;;
43990;SDS011;29654;50.784;20.604;2022-07-15T15:47:49;1.50;;;0.80;;
43990;SDS011;29654;50.784;20.604;2022-07-15T15:52:52;2.65;;;0.80;;
43990;SDS011;29654;50.784;20.604;2022-07-15T15:57:56;2.38;;;0.70;;
43990;SDS011;29654;50.784;20.604;2022-07-15T16:02:59;1.55;;;0.85;;
43990;SDS011;29654;50.784;20.604;2022-07-15T16:08:02;2.10;;;1.00;;
43990;SDS011;29654;50.784;20.604;2022-07-15T16:13:08;2.75;;;1.00;;
43990;SDS011;29654;50.784;20.604;2022-07-15T16:18:11;3.05;;;0.95;;
43990;SDS011;29654;50.784;20.604;2022-07-15T16:23:14;2.38;;;0.75;;
43990;SDS011;29654;50.784;20.604;2022-07-15T16:28:18;2.22;;;0.85;;
43990;SDS011;29654;50.784;20.604;2022-07-15T16:33:21;1.42;;;0.77;;
43990;SDS011;29654;50.784;20.604;2022-07-15T16:38:25;1.48;;;0.70;;
43990;SDS011;29654;50.784;20.604;2022-07-15T16:43:30;1.15;;;0.75;;
43990;SDS011;29654;50.784;20.604;2022-07-15T16:48:34;1.45;;;0.70;;
43990;SDS011;29654;50.784;20.604;2022-07-15T16:53:37;0.63;;;0.63;;
43990;SDS011;29654;50.784;20.604;2022-07-15T16:58:42;2.13;;;1.00;;
43990;SDS011;29654;50.784;20.604;2022-07-15T17:03:45;0.60;;;0.60;;
43990;SDS011;29654;50.784;20.604;2022-07-15T17:08:48;1.05;;;0.75;;
43990;SDS011;29654;50.784;20.604;2022-07-15T17:13:52;2.03;;;0.93;;
43990;SDS011;29654;50.784;20.604;2022-07-15T17:18:55;1.92;;;0.75;;
43990;SDS011;29654;50.784;20.604;2022-07-15T17:23:58;1.25;;;1.13;;
43990;SDS011;29654;50.784;20.604;2022-07-15T17:29:03;1.27;;;0.80;;
43990;SDS011;29654;50.784;20.604;2022-07-15T17:34:06;2.15;;;1.02;;
43990;SDS011;29654;50.784;20.604;2022-07-15T17:39:10;1.15;;;0.80;;
43990;SDS011;29654;50.784;20.604;2022-07-15T17:44:16;1.92;;;1.30;;
43990;SDS011;29654;50.784;20.604;2022-07-15T17:49:19;2.20;;;1.48;;
43990;SDS011;29654;50.784;20.604;2022-07-15T17:54:22;4.43;;;2.03;;
43990;SDS011;29654;50.784;20.604;2022-07-15T17:59:27;4.85;;;1.75;;
43990;SDS011;29654;50.784;20.604;2022-07-15T18:04:33;2.45;;;1.20;;
43990;SDS011;29654;50.784;20.604;2022-07-15T18:09:36;1.15;;;0.77;;
43990;SDS011;29654;50.784;20.604;2022-07-15T18:14:40;2.13;;;1.00;;
43990;SDS011;29654;50.784;20.604;2022-07-15T18:19:43;1.48;;;1.10;;
43990;SDS011;29654;50.784;20.604;2022-07-15T18:24:46;1.73;;;0.77;;
43990;SDS011;29654;50.784;20.604;2022-07-15T18:29:50;0.90;;;0.70;;
43990;SDS011;29654;50.784;20.604;2022-07-15T18:34:53;1.30;;;0.98;;
43990;SDS011;29654;50.784;20.604;2022-07-15T18:39:56;0.80;;;0.70;;
43990;SDS011;29654;50.784;20.604;2022-07-15T18:45:00;1.05;;;0.55;;
43990;SDS011;29654;50.784;20.604;2022-07-15T18:50:04;2.10;;;1.00;;
43990;SDS011;29654;50.784;20.604;2022-07-15T18:55:08;1.05;;;0.85;;
43990;SDS011;29654;50.784;20.604;2022-07-15T19:00:13;1.10;;;1.00;;
43990;SDS011;29654;50.784;20.604;2022-07-15T19:05:17;2.38;;;1.00;;
43990;SDS011;29654;50.784;20.604;2022-07-15T19:10:20;3.35;;;1.02;;
43990;SDS011;29654;50.784;20.604;2022-07-15T19:15:24;2.05;;;1.40;;
43990;SDS011;29654;50.784;20.604;2022-07-15T19:20:27;2.40;;;1.02;;
43990;SDS011;29654;50.784;20.604;2022-07-15T19:25:30;4.75;;;1.10;;
43990;SDS011;29654;50.784;20.604;2022-07-15T19:30:36;4.05;;;1.27;;
43990;SDS011;29654;50.784;20.604;2022-07-15T19:35:39;2.83;;;1.38;;
43990;SDS011;29654;50.784;20.604;2022-07-15T19:40:42;5.30;;;1.45;;
43990;SDS011;29654;50.784;20.604;2022-07-15T19:45:47;4.03;;;1.65;;
43990;SDS011;29654;50.784;20.604;2022-07-15T19:50:50;8.48;;;1.80;;
43990;SDS011;29654;50.784;20.604;2022-07-15T19:55:53;4.32;;;1.58;;
43990;SDS011;29654;50.784;20.604;2022-07-15T20:00:58;3.08;;;1.77;;
43990;SDS011;29654;50.784;20.604;2022-07-15T20:06:03;3.08;;;1.27;;
43990;SDS011;29654;50.784;20.604;2022-07-15T20:11:14;3.03;;;1.25;;
43990;SDS011;29654;50.784;20.604;2022-07-15T20:16:18;4.85;;;1.60;;
43990;SDS011;29654;50.784;20.604;2022-07-15T20:21:21;6.40;;;1.63;;
43990;SDS011;29654;50.784;20.604;2022-07-15T20:26:24;6.13;;;1.48;;
43990;SDS011;29654;50.784;20.604;2022-07-15T20:31:28;2.90;;;1.77;;
43990;SDS011;29654;50.784;20.604;2022-07-15T20:36:32;5.93;;;1.38;;
43990;SDS011;29654;50.784;20.604;2022-07-15T20:41:35;5.95;;;1.83;;
43990;SDS011;29654;50.784;20.604;2022-07-15T20:46:39;3.05;;;1.33;;
43990;SDS011;29654;50.784;20.604;2022-07-15T20:51:42;3.25;;;1.60;;
43990;SDS011;29654;50.784;20.604;2022-07-15T20:56:45;5.43;;;2.13;;
43990;SDS011;29654;50.784;20.604;2022-07-15T21:01:49;2.90;;;1.90;;
43990;SDS011;29654;50.784;20.604;2022-07-15T21:06:53;4.97;;;2.10;;
43990;SDS011;29654;50.784;20.604;2022-07-15T21:11:56;3.65;;;2.10;;
43990;SDS011;29654;50.784;20.604;2022-07-15T21:17:00;4.88;;;2.50;;
43990;SDS011;29654;50.784;20.604;2022-07-15T21:22:03;4.55;;;3.38;;
43990;SDS011;29654;50.784;20.604;2022-07-15T21:27:06;4.85;;;2.92;;
43990;SDS011;29654;50.784;20.604;2022-07-15T21:32:12;3.30;;;2.58;;
43990;SDS011;29654;50.784;20.604;2022-07-15T21:37:15;4.85;;;2.30;;
43990;SDS011;29654;50.784;20.604;2022-07-15T21:42:18;3.17;;;2.50;;
43990;SDS011;29654;50.784;20.604;2022-07-15T21:47:22;4.10;;;2.60;;
43990;SDS011;29654;50.784;20.604;2022-07-15T21:52:25;4.38;;;2.40;;
43990;SDS011;29654;50.784;20.604;2022-07-15T21:57:28;4.05;;;2.15;;
43990;SDS011;29654;50.784;20.604;2022-07-15T22:02:33;3.30;;;2.17;;
43990;SDS011;29654;50.784;20.604;2022-07-15T22:07:38;3.35;;;2.03;;
43990;SDS011;29654;50.784;20.604;2022-07-15T22:12:41;2.67;;;1.95;;
43990;SDS011;29654;50.784;20.604;2022-07-15T22:17:45;4.00;;;2.10;;
43990;SDS011;29654;50.784;20.604;2022-07-15T22:22:49;3.90;;;2.70;;
43990;SDS011;29654;50.784;20.604;2022-07-15T22:27:54;6.10;;;2.30;;
43990;SDS011;29654;50.784;20.604;2022-07-15T22:32:58;3.58;;;2.13;;
43990;SDS011;29654;50.784;20.604;2022-07-15T22:38:01;2.13;;;1.70;;
43990;SDS011;29654;50.784;20.604;2022-07-15T22:43:05;4.10;;;3.30;;
43990;SDS011;29654;50.784;20.604;2022-07-15T22:48:09;5.45;;;2.78;;
43990;SDS011;29654;50.784;20.604;2022-07-15T22:53:13;4.68;;;2.78;;
43990;SDS011;29654;50.784;20.604;2022-07-15T22:58:16;5.05;;;2.70;;
43990;SDS011;29654;50.784;20.604;2022-07-15T23:03:22;4.55;;;2.30;;
43990;SDS011;29654;50.784;20.604;2022-07-15T23:08:25;5.32;;;3.10;;
43990;SDS011;29654;50.784;20.604;2022-07-15T23:13:28;4.93;;;3.63;;
43990;SDS011;29654;50.784;20.604;2022-07-15T23:18:34;4.53;;;3.20;;
43990;SDS011;29654;50.784;20.604;2022-07-15T23:23:37;4.65;;;3.67;;
43990;SDS011;29654;50.784;20.604;2022-07-15T23:28:40;6.45;;;3.72;;
43990;SDS011;29654;50.784;20.604;2022-07-15T23:33:44;6.90;;;4.38;;
43990;SDS011;29654;50.784;20.604;2022-07-15T23:38:47;8.27;;;4.40;;
43990;SDS011;29654;50.784;20.604;2022-07-15T23:43:50;7.57;;;4.32;;
43990;SDS011;29654;50.784;20.604;2022-07-15T23:48:55;4.10;;;3.70;;
43990;SDS011;29654;50.784;20.604;2022-07-15T23:53:58;6.03;;;4.10;;
43990;SDS011;29654;50.784;20.604;2022-07-15T23:59:02;5.07;;;4.20;;
